createdAt,value
2023-04-20T00:00:18.003Z,99302.69
2023-04-20T00:02:46.114Z,99299.28
2023-04-20T00:05:16.639Z,99291.50
2023-04-20T00:07:43.632Z,99286.84
2023-04-20T00:10:13.272Z,99294.66
2023-04-20T00:12:42.448Z,99291.09
2023-04-20T00:15:09.925Z,99270.56
2023-04-20T00:17:38.727Z,99276.31
2023-04-20T00:20:06.618Z,99276.91
2023-04-20T00:22:34.088Z,99284.19
2023-04-20T00:25:00.984Z,99270.66
2023-04-20T00:27:28.705Z,99283.63
2023-04-20T00:29:58.697Z,99282.56
2023-04-20T00:32:30.423Z,99278.72
2023-04-20T00:34:57.381Z,99264.59
2023-04-20T00:37:25.783Z,99272.66
2023-04-20T00:39:55.918Z,99279.84
2023-04-20T00:42:24.963Z,99269.41
2023-04-20T00:44:52.149Z,99270.25
2023-04-20T00:47:19.246Z,99266.16
2023-04-20T00:49:46.590Z,99273.34
2023-04-20T00:52:13.691Z,99275.16
2023-04-20T00:54:41.124Z,99266.38
2023-04-20T00:57:11.193Z,99268.66
2023-04-20T00:59:41.349Z,99261.09
2023-04-20T01:02:08.538Z,99262.22
2023-04-20T01:04:40.028Z,99256.44
2023-04-20T01:07:07.270Z,99257.41
2023-04-20T01:09:34.208Z,99267.50
2023-04-20T01:12:01.824Z,99255.84
2023-04-20T01:14:28.924Z,99259.06
2023-04-20T01:17:01.734Z,99252.34
2023-04-20T01:19:28.822Z,99241.22
2023-04-20T01:21:55.815Z,99250.44
2023-04-20T01:24:27.924Z,99257.03
2023-04-20T01:26:54.803Z,99259.53
2023-04-20T01:29:24.074Z,99245.88
2023-04-20T01:31:54.071Z,99263.63
2023-04-20T01:34:23.828Z,99258.84
2023-04-20T01:36:50.764Z,99260.38
2023-04-20T01:39:21.037Z,99257.72
2023-04-20T01:41:48.116Z,99254.13
2023-04-20T01:44:23.918Z,99248.59
2023-04-20T01:46:51.011Z,99250.03
2023-04-20T01:49:18.255Z,99252.94
2023-04-20T01:51:45.388Z,99248.75
2023-04-20T01:54:12.275Z,99252.81
2023-04-20T01:56:48.445Z,99240.13
2023-04-20T01:59:16.172Z,99257.50
2023-04-20T02:01:45.868Z,99250.22
2023-04-20T02:04:12.834Z,99240.50
2023-04-20T02:06:42.791Z,99244.34
2023-04-20T02:09:09.947Z,99235.69
2023-04-20T02:11:39.869Z,99232.69
2023-04-20T02:14:07.042Z,99241.22
2023-04-20T02:16:35.668Z,99251.28
2023-04-20T02:19:08.036Z,99240.03
2023-04-20T02:21:35.130Z,99235.00
2023-04-20T02:24:04.658Z,99237.84
2023-04-20T02:26:34.437Z,99245.28
2023-04-20T02:29:01.421Z,99240.75
2023-04-20T02:31:28.369Z,99231.75
2023-04-20T02:33:58.354Z,99244.78
2023-04-20T02:36:27.193Z,99241.22
2023-04-20T02:38:54.559Z,99234.22
2023-04-20T02:41:23.934Z,99231.13
2023-04-20T02:43:52.819Z,99235.94
2023-04-20T02:46:22.364Z,99229.56
2023-04-20T02:48:49.482Z,99241.72
2023-04-20T02:51:19.185Z,99239.31
2023-04-20T02:53:46.524Z,99236.78
2023-04-20T02:56:22.695Z,99243.59
2023-04-20T02:59:02.912Z,99234.38
2023-04-20T03:02:03.791Z,99238.91
2023-04-20T03:04:31.299Z,99246.56
2023-04-20T03:07:05.832Z,99221.75
2023-04-20T03:09:36.947Z,99238.53
2023-04-20T03:12:36.881Z,99241.94
2023-04-20T03:15:25.502Z,99221.41
2023-04-20T03:18:10.118Z,99252.34
2023-04-20T03:20:45.403Z,99239.41
2023-04-20T03:23:12.287Z,99243.22
2023-04-20T03:25:39.112Z,99243.13
2023-04-20T03:28:11.371Z,99250.06
2023-04-20T03:30:41.250Z,99232.47
2023-04-20T03:33:15.151Z,99239.41
2023-04-20T03:35:43.220Z,99253.09
2023-04-20T03:38:10.433Z,99243.97
2023-04-20T03:40:37.407Z,99243.72
2023-04-20T03:43:04.832Z,99249.47
2023-04-20T03:45:31.684Z,99254.75
2023-04-20T03:47:58.555Z,99254.53
2023-04-20T03:50:26.318Z,99263.63
2023-04-20T03:52:53.175Z,99247.56
2023-04-20T03:55:20.948Z,99266.06
2023-04-20T03:57:54.355Z,99260.28
2023-04-20T04:00:21.600Z,99262.22
2023-04-20T04:02:48.553Z,99261.50
2023-04-20T04:05:23.136Z,99261.47
2023-04-20T04:07:50.092Z,99274.69
2023-04-20T04:10:19.161Z,99278.91
2023-04-20T04:12:46.446Z,99267.13
2023-04-20T04:15:14.749Z,99266.25
2023-04-20T04:17:50.142Z,99273.34
2023-04-20T04:20:17.358Z,99267.00
2023-04-20T04:22:44.778Z,99275.25
2023-04-20T04:25:33.794Z,99266.03
2023-04-20T04:28:00.848Z,99272.38
2023-04-20T04:30:30.152Z,99263.75
2023-04-20T04:32:57.760Z,99274.66
2023-04-20T04:35:24.751Z,99270.94
2023-04-20T04:37:52.838Z,99276.13
2023-04-20T04:40:20.149Z,99279.69
2023-04-20T04:42:49.601Z,99278.72
2023-04-20T04:45:18.526Z,99273.53
2023-04-20T04:47:46.461Z,99277.63
2023-04-20T04:50:13.545Z,99273.53
2023-04-20T04:52:40.405Z,99277.00
2023-04-20T04:55:09.894Z,99279.66
2023-04-20T04:57:38.829Z,99280.56
2023-04-20T05:00:11.919Z,99282.00
2023-04-20T05:02:39.262Z,99282.69
2023-04-20T05:05:09.405Z,99284.16
2023-04-20T05:07:38.509Z,99277.41
2023-04-20T05:10:06.694Z,99274.41
2023-04-20T05:12:33.960Z,99285.03
2023-04-20T05:15:00.800Z,99286.47
2023-04-20T05:17:27.785Z,99289.25
2023-04-20T05:19:54.703Z,99282.09
2023-04-20T05:22:21.681Z,99272.03
2023-04-20T05:24:48.571Z,99276.75
2023-04-20T05:27:15.443Z,99277.78
2023-04-20T05:29:42.262Z,99281.81
2023-04-20T05:32:09.198Z,99280.94
2023-04-20T05:34:36.184Z,99276.66
2023-04-20T05:37:05.333Z,99274.50
2023-04-20T05:39:32.339Z,99276.78
2023-04-20T05:41:59.169Z,99280.00
2023-04-20T05:44:26.090Z,99278.19
2023-04-20T05:46:53.071Z,99282.50
2023-04-20T05:49:20.076Z,99284.38
2023-04-20T05:51:46.990Z,99286.16
2023-04-20T05:54:13.864Z,99288.38
2023-04-20T05:56:40.670Z,99284.72
2023-04-20T05:59:08.726Z,99291.59
2023-04-20T06:01:35.595Z,99283.78
2023-04-20T06:04:02.828Z,99279.34
2023-04-20T06:06:29.793Z,99279.59
2023-04-20T06:08:58.213Z,99287.84
2023-04-20T06:11:25.187Z,99287.41
2023-04-20T06:13:52.048Z,99278.06
2023-04-20T06:16:18.990Z,99283.66
2023-04-20T06:18:45.868Z,99289.38
2023-04-20T06:21:12.825Z,99291.03
2023-04-20T06:23:41.039Z,99286.38
2023-04-20T06:26:09.719Z,99290.22
2023-04-20T06:28:37.219Z,99294.50
2023-04-20T06:31:05.123Z,99293.38
2023-04-20T06:33:31.976Z,99281.25
2023-04-20T06:35:59.227Z,99295.75
2023-04-20T06:38:26.160Z,99291.28
2023-04-20T06:40:53.136Z,99296.31
2023-04-20T06:43:20.006Z,99296.44
2023-04-20T06:45:46.931Z,99290.13
2023-04-20T06:48:30.156Z,99288.03
2023-04-20T06:50:58.599Z,99289.69
2023-04-20T06:53:28.200Z,99286.59
2023-04-20T06:55:55.868Z,99281.78
2023-04-20T06:58:22.854Z,99288.66
2023-04-20T07:00:49.730Z,99295.13
2023-04-20T07:03:18.904Z,99292.25
2023-04-20T07:05:46.776Z,99298.34
2023-04-20T07:08:15.814Z,99297.38
2023-04-20T07:10:43.056Z,99302.28
2023-04-20T07:13:09.972Z,99298.03
2023-04-20T07:15:36.766Z,99290.53
2023-04-20T07:18:03.805Z,99305.81
2023-04-20T07:20:30.938Z,99307.16
2023-04-20T07:22:57.822Z,99308.94
2023-04-20T07:25:25.944Z,99304.91
2023-04-20T07:27:52.957Z,99315.03
2023-04-20T07:30:19.795Z,99308.50
2023-04-20T07:32:46.734Z,99315.31
2023-04-20T07:35:13.650Z,99312.59
2023-04-20T07:37:40.940Z,99312.75
2023-04-20T07:40:08.744Z,99316.47
2023-04-20T07:42:37.405Z,99309.06
2023-04-20T07:45:05.666Z,99301.53
2023-04-20T07:47:36.023Z,99303.88
2023-04-20T07:50:04.196Z,99302.22
2023-04-20T07:52:31.240Z,99303.63
2023-04-20T07:54:59.357Z,99298.81
2023-04-20T07:57:27.141Z,99295.19
2023-04-20T07:59:54.036Z,99296.84
2023-04-20T08:02:21.054Z,99290.94
2023-04-20T08:04:49.807Z,99294.84
2023-04-20T08:07:18.063Z,99294.06
2023-04-20T08:09:44.968Z,99293.00
2023-04-20T08:12:11.797Z,99300.53
2023-04-20T08:14:38.613Z,99302.06
2023-04-20T08:17:05.616Z,99297.09
2023-04-20T08:19:32.464Z,99297.56
2023-04-20T08:22:00.694Z,99293.66
2023-04-20T08:24:28.326Z,99303.59
2023-04-20T08:26:55.147Z,99303.63
2023-04-20T08:29:21.974Z,99302.84
2023-04-20T08:31:50.707Z,99295.31
2023-04-20T08:34:18.940Z,99296.13
2023-04-20T08:36:46.509Z,99296.78
2023-04-20T08:39:15.653Z,99303.44
2023-04-20T08:41:42.571Z,99298.03
2023-04-20T08:44:09.645Z,99293.06
2023-04-20T08:46:38.507Z,99292.81
2023-04-20T08:49:05.441Z,99298.09
2023-04-20T08:51:32.790Z,99293.47
2023-04-20T08:54:06.059Z,99300.88
2023-04-20T08:56:44.593Z,99291.78
2023-04-20T08:59:14.137Z,99290.34
2023-04-20T09:01:42.616Z,99294.66
2023-04-20T09:04:21.675Z,99296.81
2023-04-20T09:06:50.810Z,99303.88
2023-04-20T09:09:21.790Z,99302.13
2023-04-20T09:11:59.411Z,99292.09
2023-04-20T09:14:26.384Z,99294.13
2023-04-20T09:17:02.182Z,99294.31
2023-04-20T09:19:30.511Z,99294.63
2023-04-20T09:22:05.329Z,99283.44
2023-04-20T09:24:37.668Z,99287.63
2023-04-20T09:27:18.343Z,99282.13
2023-04-20T09:29:57.278Z,99281.47
2023-04-20T09:32:25.529Z,99278.13
2023-04-20T09:34:52.537Z,99286.13
2023-04-20T09:37:19.432Z,99279.13
2023-04-20T09:39:47.140Z,99274.63
2023-04-20T09:42:16.135Z,99273.72
2023-04-20T09:44:43.616Z,99271.09
2023-04-20T09:47:17.915Z,99264.25
2023-04-20T09:49:47.260Z,99269.53
2023-04-20T09:52:21.138Z,99272.78
2023-04-20T09:54:49.036Z,99266.72
2023-04-20T09:57:16.054Z,99274.22
2023-04-20T09:59:47.169Z,99266.03
2023-04-20T10:02:14.768Z,99253.88
2023-04-20T10:04:56.085Z,99251.91
2023-04-20T10:07:27.822Z,99253.38
2023-04-20T10:10:07.946Z,99242.13
2023-04-20T10:12:46.939Z,99245.41
2023-04-20T10:15:13.839Z,99232.97
2023-04-20T10:17:41.680Z,99239.22
2023-04-20T10:20:23.349Z,99233.03
2023-04-20T10:22:52.937Z,99233.22
2023-04-20T10:25:26.933Z,99232.97
2023-04-20T10:27:59.097Z,99230.94
2023-04-20T10:30:27.613Z,99238.84
2023-04-20T10:33:11.510Z,99227.28
2023-04-20T10:35:50.764Z,99229.97
2023-04-20T10:38:35.436Z,99237.81
2023-04-20T10:41:12.683Z,99234.50
2023-04-20T10:43:43.314Z,99231.41
2023-04-20T10:46:25.606Z,99232.94
2023-04-20T10:49:01.646Z,99234.63
2023-04-20T10:51:28.755Z,99229.16
2023-04-20T10:54:07.953Z,99229.72
2023-04-20T10:56:46.181Z,99231.59
2023-04-20T10:59:13.907Z,99223.31
2023-04-20T11:01:41.500Z,99222.03
2023-04-20T11:04:10.719Z,99219.53
2023-04-20T11:06:39.661Z,99217.81
2023-04-20T11:09:22.882Z,99232.03
2023-04-20T11:12:04.012Z,99225.06
2023-04-20T11:14:33.685Z,99229.25
2023-04-20T11:17:01.336Z,99230.47
2023-04-20T11:19:36.175Z,99229.94
2023-04-20T11:22:05.165Z,99229.13
2023-04-20T11:24:34.072Z,99239.25
2023-04-20T11:27:02.280Z,99233.69
2023-04-20T11:29:32.714Z,99244.28
2023-04-20T11:32:04.675Z,99240.34
2023-04-20T11:34:32.081Z,99237.34
2023-04-20T11:37:16.018Z,99239.75
2023-04-20T11:39:43.156Z,99230.22
2023-04-20T11:42:09.987Z,99233.28
2023-04-20T11:44:37.147Z,99219.56
2023-04-20T11:47:04.384Z,99232.28
2023-04-20T11:49:31.484Z,99229.34
2023-04-20T11:51:58.361Z,99228.81
2023-04-20T11:54:27.362Z,99229.13
2023-04-20T11:56:54.171Z,99229.25
2023-04-20T11:59:21.510Z,99230.72
2023-04-20T12:01:48.670Z,99233.91
2023-04-20T12:04:16.483Z,99226.66
2023-04-20T12:06:44.181Z,99217.19
2023-04-20T12:09:11.306Z,99223.72
2023-04-20T12:11:38.117Z,99222.75
2023-04-20T12:14:05.262Z,99216.56
2023-04-20T12:16:32.279Z,99224.03
2023-04-20T12:18:59.361Z,99217.03
2023-04-20T12:21:27.456Z,99214.75
2023-04-20T12:23:54.390Z,99219.50
2023-04-20T12:26:22.674Z,99213.59
2023-04-20T12:28:52.273Z,99217.38
2023-04-20T12:31:19.391Z,99219.59
2023-04-20T12:33:46.254Z,99214.28
2023-04-20T12:36:13.162Z,99209.78
2023-04-20T12:38:40.046Z,99210.34
2023-04-20T12:41:06.905Z,99206.09
2023-04-20T12:43:34.021Z,99200.16
2023-04-20T12:46:00.858Z,99194.88
2023-04-20T12:48:27.659Z,99184.94
2023-04-20T12:50:54.495Z,99181.13
2023-04-20T12:53:21.563Z,99177.03
2023-04-20T12:56:00.333Z,99181.66
2023-04-20T12:58:28.097Z,99167.97
2023-04-20T13:00:55.003Z,99162.75
2023-04-20T13:03:21.964Z,99168.06
2023-04-20T13:05:48.999Z,99152.63
2023-04-20T13:08:15.912Z,99167.06
2023-04-20T13:10:43.568Z,99176.03
2023-04-20T13:13:11.460Z,99173.88
2023-04-20T13:15:39.404Z,99158.16
2023-04-20T13:18:06.948Z,99158.94
2023-04-20T13:20:33.869Z,99150.38
2023-04-20T13:23:01.616Z,99165.97
2023-04-20T13:25:32.690Z,99157.19
2023-04-20T13:28:01.317Z,99156.75
2023-04-20T13:30:28.296Z,99157.78
2023-04-20T13:32:55.233Z,99162.53
2023-04-20T13:35:23.028Z,99163.50
2023-04-20T13:37:49.857Z,99168.50
2023-04-20T13:40:16.715Z,99156.63
2023-04-20T13:42:43.623Z,99160.00
2023-04-20T13:45:10.917Z,99166.03
2023-04-20T13:47:39.450Z,99154.66
2023-04-20T13:50:07.664Z,99169.91
2023-04-20T13:52:34.714Z,99161.19
2023-04-20T13:55:01.586Z,99153.16
2023-04-20T13:57:28.476Z,99154.94
2023-04-20T13:59:55.324Z,99167.13
2023-04-20T14:02:22.412Z,99162.91
2023-04-20T14:04:49.368Z,99161.34
2023-04-20T14:07:16.328Z,99164.53
2023-04-20T14:09:44.354Z,99171.72
2023-04-20T14:12:11.734Z,99167.00
2023-04-20T14:14:39.085Z,99173.38
2023-04-20T14:17:06.085Z,99173.63
2023-04-20T14:19:33.081Z,99178.94
2023-04-20T14:21:59.919Z,99172.63
2023-04-20T14:24:26.864Z,99179.47
2023-04-20T14:26:54.270Z,99180.66
2023-04-20T14:29:21.218Z,99184.41
2023-04-20T14:31:48.234Z,99177.09
2023-04-20T14:34:15.252Z,99181.91
2023-04-20T14:36:42.255Z,99187.19
2023-04-20T14:39:09.091Z,99183.94
2023-04-20T14:41:36.118Z,99182.25
2023-04-20T14:44:03.051Z,99191.63
2023-04-20T14:46:29.869Z,99194.50
2023-04-20T14:48:57.993Z,99196.16
2023-04-20T14:51:33.711Z,99192.25
2023-04-20T14:54:00.680Z,99193.28
2023-04-20T14:56:27.670Z,99197.81
2023-04-20T14:58:54.541Z,99198.72
2023-04-20T15:01:22.011Z,99197.13
2023-04-20T15:03:49.030Z,99197.25
2023-04-20T15:06:16.991Z,99197.25
2023-04-20T15:08:43.879Z,99193.38
2023-04-20T15:11:10.867Z,99194.69
2023-04-20T15:13:41.116Z,99201.47
2023-04-20T15:16:08.839Z,99202.16
2023-04-20T15:18:35.923Z,99201.84
2023-04-20T15:21:02.925Z,99201.13
2023-04-20T15:23:30.074Z,99194.34
2023-04-20T15:25:57.040Z,99201.19
2023-04-20T15:28:23.865Z,99200.63
2023-04-20T15:30:50.726Z,99200.72
2023-04-20T15:33:17.673Z,99202.03
2023-04-20T15:35:44.518Z,99199.19
2023-04-20T15:38:11.383Z,99200.34
2023-04-20T15:40:38.983Z,99196.69
2023-04-20T15:43:06.511Z,99204.28
2023-04-20T15:45:33.486Z,99203.59
2023-04-20T15:48:01.096Z,99206.88
2023-04-20T15:50:28.079Z,99205.13
2023-04-20T15:52:55.162Z,99211.28
2023-04-20T15:55:22.299Z,99216.19
2023-04-20T15:57:49.231Z,99219.16
2023-04-20T16:00:16.387Z,99223.47
2023-04-20T16:02:43.379Z,99217.81
2023-04-20T16:05:10.297Z,99222.81
2023-04-20T16:07:37.175Z,99222.97
2023-04-20T16:10:06.731Z,99216.19
2023-04-20T16:12:36.026Z,99213.94
2023-04-20T16:15:04.005Z,99222.06
2023-04-20T16:17:30.959Z,99218.19
2023-04-20T16:19:57.879Z,99224.41
2023-04-20T16:22:24.923Z,99228.59
2023-04-20T16:24:51.929Z,99229.47
2023-04-20T16:27:19.044Z,99224.66
2023-04-20T16:29:46.038Z,99230.72
2023-04-20T16:32:13.416Z,99233.91
2023-04-20T16:34:41.098Z,99240.22
2023-04-20T16:37:07.968Z,99233.41
2023-04-20T16:39:35.083Z,99240.59
2023-04-20T16:42:03.011Z,99233.72
2023-04-20T16:44:29.860Z,99235.72
2023-04-20T16:46:56.924Z,99234.88
2023-04-20T16:49:23.917Z,99245.75
2023-04-20T16:51:50.984Z,99244.09
2023-04-20T16:54:18.028Z,99246.56
2023-04-20T16:56:45.028Z,99254.22
2023-04-20T16:59:11.875Z,99246.69
2023-04-20T17:01:38.780Z,99254.81
2023-04-20T17:04:05.878Z,99258.47
2023-04-20T17:06:32.833Z,99264.31
2023-04-20T17:09:05.518Z,99266.81
2023-04-20T17:11:35.964Z,99262.13
2023-04-20T17:14:03.473Z,99263.78
2023-04-20T17:16:30.456Z,99274.75
2023-04-20T17:18:57.462Z,99266.03
2023-04-20T17:21:24.397Z,99272.50
2023-04-20T17:23:51.337Z,99272.47
2023-04-20T17:26:18.250Z,99277.47
2023-04-20T17:28:46.432Z,99286.13
2023-04-20T17:31:13.378Z,99281.16
2023-04-20T17:33:40.406Z,99288.69
2023-04-20T17:36:07.405Z,99300.28
2023-04-20T17:38:36.733Z,99294.19
2023-04-20T17:41:04.948Z,99302.84
2023-04-20T17:43:31.784Z,99305.13
2023-04-20T17:45:58.914Z,99307.06
2023-04-20T17:48:26.023Z,99306.56
2023-04-20T17:50:52.950Z,99304.34
2023-04-20T17:53:19.811Z,99312.06
2023-04-20T17:55:46.724Z,99323.03
2023-04-20T17:58:13.582Z,99327.16
2023-04-20T18:00:40.530Z,99325.78
2023-04-20T18:03:07.526Z,99336.91
2023-04-20T18:05:34.413Z,99342.25
2023-04-20T18:08:01.523Z,99351.19
2023-04-20T18:10:28.708Z,99345.03
2023-04-20T18:12:55.632Z,99351.72
2023-04-20T18:15:22.462Z,99367.00
2023-04-20T18:17:49.571Z,99361.56
2023-04-20T18:20:16.659Z,99370.13
2023-04-20T18:22:43.537Z,99370.44
2023-04-20T18:25:10.611Z,99370.06
2023-04-20T18:27:38.089Z,99375.22
2023-04-20T18:30:05.771Z,99377.50
2023-04-20T18:32:33.137Z,99389.69
2023-04-20T18:35:00.592Z,99383.09
2023-04-20T18:37:27.424Z,99390.97
2023-04-20T18:39:54.466Z,99390.31
2023-04-20T18:42:21.336Z,99390.41
2023-04-20T18:44:49.748Z,99395.75
2023-04-20T18:47:18.981Z,99395.22
2023-04-20T18:49:45.823Z,99387.03
2023-04-20T18:52:12.907Z,99393.28
2023-04-20T18:54:40.204Z,99392.25
2023-04-20T18:57:07.791Z,99395.69
2023-04-20T18:59:34.777Z,99403.84
2023-04-20T19:02:01.664Z,99394.94
2023-04-20T19:04:29.626Z,99395.06
2023-04-20T19:06:56.536Z,99390.16
2023-04-20T19:09:23.411Z,99388.25
2023-04-20T19:11:51.085Z,99384.75
2023-04-20T19:14:18.237Z,99396.59
2023-04-20T19:16:45.305Z,99383.84
2023-04-20T19:19:12.212Z,99397.63
2023-04-20T19:21:39.164Z,99397.03
2023-04-20T19:24:06.478Z,99386.13
2023-04-20T19:26:33.446Z,99378.66
2023-04-20T19:29:00.555Z,99390.06
2023-04-20T19:31:32.222Z,99387.38
2023-04-20T19:33:59.209Z,99387.97
2023-04-20T19:36:26.049Z,99390.91
2023-04-20T19:38:52.946Z,99386.19
2023-04-20T19:41:19.955Z,99382.34
2023-04-20T19:43:46.798Z,99381.22
2023-04-20T19:46:16.884Z,99368.81
2023-04-20T19:48:44.037Z,99366.72
2023-04-20T19:51:11.720Z,99362.28
2023-04-20T19:53:38.686Z,99351.22
2023-04-20T19:56:06.726Z,99357.34
2023-04-20T19:58:33.652Z,99367.00
2023-04-20T20:01:00.476Z,99353.69
2023-04-20T20:03:27.637Z,99350.38
2023-04-20T20:05:54.707Z,99348.84
2023-04-20T20:08:21.572Z,99353.28
2023-04-20T20:10:48.431Z,99379.41
2023-04-20T20:13:15.728Z,99381.16
2023-04-20T20:15:42.781Z,99385.56
2023-04-20T20:18:12.489Z,99386.69
2023-04-20T20:20:39.360Z,99397.34
2023-04-20T20:23:06.193Z,99401.00
2023-04-20T20:25:35.165Z,99406.31
2023-04-20T20:28:02.297Z,99403.88
2023-04-20T20:30:29.240Z,99410.94
2023-04-20T20:32:58.884Z,99403.38
2023-04-20T20:35:31.609Z,99405.16
2023-04-20T20:37:59.727Z,99412.16
2023-04-20T20:40:26.639Z,99400.94
2023-04-20T20:42:54.412Z,99406.16
2023-04-20T20:45:22.023Z,99405.47
2023-04-20T20:47:49.215Z,99404.88
2023-04-20T20:50:16.904Z,99408.72
2023-04-20T20:52:43.811Z,99414.97
2023-04-20T20:55:10.719Z,99412.72
2023-04-20T20:57:38.107Z,99413.97
2023-04-20T21:00:10.457Z,99415.66
2023-04-20T21:02:37.764Z,99414.41
2023-04-20T21:05:05.521Z,99427.25
2023-04-20T21:07:32.505Z,99417.78
2023-04-20T21:09:59.327Z,99410.34
2023-04-20T21:12:26.271Z,99409.38
2023-04-20T21:14:53.378Z,99408.22
2023-04-20T21:17:20.724Z,99415.09
2023-04-20T21:19:47.592Z,99414.53
2023-04-20T21:22:14.461Z,99410.19
2023-04-20T21:24:41.402Z,99418.00
2023-04-20T21:27:08.260Z,99413.84
2023-04-20T21:29:35.009Z,99417.22
2023-04-20T21:32:01.934Z,99413.69
2023-04-20T21:34:28.825Z,99415.50
2023-04-20T21:36:55.606Z,99409.09
2023-04-20T21:39:22.489Z,99420.41
2023-04-20T21:41:49.299Z,99425.28
2023-04-20T21:44:18.104Z,99429.91
2023-04-20T21:46:45.090Z,99424.47
2023-04-20T21:49:12.020Z,99431.88
2023-04-20T21:51:39.198Z,99430.22
2023-04-20T21:54:06.343Z,99432.22
2023-04-20T21:56:33.165Z,99431.66
2023-04-20T21:58:59.997Z,99424.97
2023-04-20T22:01:26.893Z,99429.00
2023-04-20T22:03:53.823Z,99423.69
2023-04-20T22:06:20.775Z,99423.97
2023-04-20T22:08:47.611Z,99412.81
2023-04-20T22:11:14.389Z,99419.09
2023-04-20T22:13:41.356Z,99411.41
2023-04-20T22:16:08.376Z,99417.31
2023-04-20T22:18:35.351Z,99405.72
2023-04-20T22:21:02.295Z,99396.78
2023-04-20T22:23:29.093Z,99406.03
2023-04-20T22:25:55.987Z,99401.03
2023-04-20T22:28:22.842Z,99395.84
2023-04-20T22:30:49.712Z,99402.03
2023-04-20T22:33:16.655Z,99389.88
2023-04-20T22:35:43.480Z,99391.44
2023-04-20T22:38:10.284Z,99395.50
2023-04-20T22:40:37.106Z,99396.06
2023-04-20T22:43:03.974Z,99386.72
2023-04-20T22:45:30.770Z,99398.44
2023-04-20T22:47:57.610Z,99392.59
2023-04-20T22:50:24.645Z,99397.44
2023-04-20T22:52:51.481Z,99396.63
2023-04-20T22:55:18.405Z,99393.00
2023-04-20T22:57:45.322Z,99389.06
2023-04-20T23:00:13.997Z,99384.75
2023-04-20T23:02:41.301Z,99374.78
2023-04-20T23:05:08.904Z,99379.38
2023-04-20T23:07:35.915Z,99370.72
2023-04-20T23:10:02.875Z,99387.38
2023-04-20T23:12:29.707Z,99385.13
2023-04-20T23:15:00.613Z,99370.50
2023-04-20T23:17:28.883Z,99385.03
2023-04-20T23:19:56.588Z,99374.91
2023-04-20T23:22:23.685Z,99377.28
2023-04-20T23:24:50.889Z,99371.13
2023-04-20T23:27:17.854Z,99371.66
2023-04-20T23:29:45.052Z,99371.91
2023-04-20T23:32:11.926Z,99360.22
2023-04-20T23:34:38.810Z,99362.06
2023-04-20T23:37:05.927Z,99356.78
2023-04-20T23:39:37.205Z,99356.47
2023-04-20T23:42:05.425Z,99356.34
2023-04-20T23:44:32.350Z,99358.88
2023-04-20T23:46:59.182Z,99353.38
2023-04-20T23:49:26.007Z,99359.09
2023-04-20T23:51:52.919Z,99354.19
2023-04-20T23:54:19.851Z,99357.47
2023-04-20T23:56:46.700Z,99350.50
2023-04-20T23:59:13.679Z,99353.63
